Kyle, TX (78640)

8:47 AM CDT on May 29, 2015 (GMT -0500)
Windy Hill | | Change Station
CLOSE
Current Station
Personal Weather Station
Location: Kyle, TX
Elevation: 656 ft
Nearby Weather Stations
Active Advisory: Flood Watch / Flood Statement Active Notice: Local Storm Report

Elev 656 ft 29.95 °N, 97.81 °W | Updated 1 minute ago

Overcast
Overcast
67.5 °F
Feels Like 67.5 °F
N
8.3
Wind Variable Wind from NW

Today
High -- | Low -- °F
--% Chance of Precip.
Yesterday
High -- | Low -- °F
Precip. -- in
6:31 AM 8:26 PM
Waxing Gibbous, 83% visible
Pressure 29.92 in
Visibility 10.0 miles
Clouds Clear
Dew Point 66 °F
Humidity 94%
Rainfall 0.87 in
Snow Depth Not available.
UV 1 out of 12
Pollen 3.80 out of 12
Air Quality Not available.
Flu Activity Sporadic
METAR KHYI 291250Z 35007KT 10SM CLR 18/17 A2992

More Conditions Fewer Conditions

Pressure 29.92 in
Visibility 10.0 miles
Clouds Clear
Dew Point 66 °F
Humidity 94%
Rainfall 0.87 in
Snow Depth Not available.
UV 1 out of 12
Pollen 3.80 out of 12
Air Quality Not available.
Flu Activity Sporadic
METAR KHYI 291250Z 35007KT 10SM CLR 18/17 A2992

More Conditions Fewer Conditions

10-Day Weather Forecast

Almanac

Astronomy

May. 29, 2015 Rise Set
Actual Time
Civil Twilight
Nautical Twilight
Astronomical Twilight
Moon
Length of Visible Light
Length of Day
Tomorrow will be .
, % of the Moon is Illuminated

Today's Extremes

State Highs State Lows

Community

WunderPhotos

Upload Photos

1,825,262 photos uploaded!

WunderBlogs® & News

Nearby

Air Quality

  Air Quality AQ Index Pollutant
Not available.

Snow Depth

Station Depth Elevation

Earthquake Activity

City Distance Mag. Time & Date
Minimum magnitude displayed is 2.5.

Coastal Water Temperatures

Place Temperature

Stations

Nearby Weather Stations

Station Location Temp. Windchill Dew Point Humidity Wind Precip. Elev Updated Type
                   
Flood Watch / Flood Statement
Statement as of 6:58 AM CDT on May 29, 2015

... Flash Flood Watch is cancelled...

The Flash Flood Watch for a portion of south central Texas has
been cancelled.